PKWA/KWA METAR and TAF weather

Enter ICAO airport designator
Station Type Date Time Source
PKWA METAR 2021/10/20 06:40 UTC NOAA

PKWA 200640Z AUTO 16003KT 10SM CLR 30/23 A2985 RMK AO2 T02950231


Station Type Date Time Source
PKWA Decoded METAR 2021/10/20 06:40 UTC NOAA

Kwajalein, Bucholz AAF, Kwajalein KMR ATOL Airport, Marshall Islands (PKWA) 08-43N 167-44E 2M
Oct 20, 2021 - 02:40 AM EDT / 2021.10.20 0640 UTC
Wind: from the SSE (160 degrees) at 3 MPH (3 KT):0
Visibility: 10 mile(s):0
Sky conditions: clear
Temperature: 85.1 F (29.5 C)
Heat index: 92.1 F (33.4 C):1
Dew Point: 73.6 F (23.1 C)
Relative Humidity: 68%
Pressure (altimeter): 29.85 in. Hg (1010 hPa)
ob: PKWA 200640Z AUTO 16003KT 10SM CLR 30/23 A2985 RMK AO2 T02950231
cycle: 6

Station Type Date Time Source
PKWA TAF 2021/10/20 06:46 UTC NOAA

TAF PKWA 200533Z 2006/2106 18008KT P6SM FEW025

Example: see airport list